Time;durP1;ratioP1;P1;durP2;ratioP2;P2;SDS_P1;SDS_P2;PMS_P1;PMS_P2;Temp;Humidity;BMP_temperature;BMP_pressure;BME280_temperature;BME280_humidity;BME280_pressure;Samples;Min_cycle;Max_cycle;Signal;HPM_P1;HPM_P2
2023/05/21 00:01:24;;;;;;;3.60;3.30;;;;;;;15.16;63.45;101985.06;6249084;22;20023;-80
2023/05/21 00:03:51;;;;;;;3.45;3.15;;;;;;;15.15;63.73;101975.53;6248993;22;20047;-80
2023/05/21 00:06:19;;;;;;;4.53;3.38;;;;;;;15.13;63.54;101980.56;6249985;22;20071;-80
2023/05/21 00:08:46;;;;;;;4.80;3.33;;;;;;;15.14;63.65;101979.38;6250534;22;20012;-80
2023/05/21 00:11:13;;;;;;;3.72;3.47;;;;;;;15.13;63.58;101975.22;6250172;22;20021;-80
2023/05/21 00:13:39;;;;;;;5.20;3.13;;;;;;;15.13;63.62;101972.53;6248488;22;20431;-80
2023/05/21 00:16:06;;;;;;;3.42;3.22;;;;;;;15.10;64.00;101976.84;6247755;22;20017;-80
2023/05/21 00:18:33;;;;;;;3.40;3.20;;;;;;;15.08;63.88;101978.47;6248502;22;20020;-80
2023/05/21 00:21:00;;;;;;;5.60;3.58;;;;;;;15.07;64.04;101980.41;6250455;22;20095;-80
2023/05/21 00:23:27;;;;;;;3.38;3.17;;;;;;;15.06;64.48;101970.09;6248184;22;20013;-80
2023/05/21 00:25:53;;;;;;;3.50;3.20;;;;;;;15.06;64.31;101975.47;6250374;22;20020;-80
2023/05/21 00:28:20;;;;;;;6.25;3.75;;;;;;;15.05;64.48;101971.28;6249443;22;20012;-80
2023/05/21 00:30:47;;;;;;;4.07;3.67;;;;;;;15.03;64.54;101966.38;6249949;22;20047;-80
2023/05/21 00:33:13;;;;;;;3.97;3.63;;;;;;;15.01;64.75;101969.50;6248309;22;20028;-80
2023/05/21 00:35:40;;;;;;;3.83;3.20;;;;;;;15.00;64.75;101965.31;6248383;22;20020;-80
2023/05/21 00:38:07;;;;;;;3.80;3.60;;;;;;;14.98;65.34;101967.69;6249985;22;20450;-80
2023/05/21 00:40:35;;;;;;;5.72;3.63;;;;;;;14.99;65.07;101960.38;6248504;22;20025;-80
2023/05/21 00:43:02;;;;;;;4.72;3.95;;;;;;;14.97;65.17;101958.16;6248388;22;20020;-81
2023/05/21 00:45:28;;;;;;;4.32;3.55;;;;;;;14.95;65.41;101955.16;6248819;22;20429;-80
2023/05/21 00:47:55;;;;;;;4.07;3.70;;;;;;;14.93;65.56;101957.53;6248590;22;20358;-80
2023/05/21 00:50:25;;;;;;;4.70;3.50;;;;;;;14.92;65.53;101953.34;6247926;22;20082;-81
2023/05/21 00:52:52;;;;;;;4.28;3.97;;;;;;;14.91;65.71;101953.78;6248299;22;20044;-80
2023/05/21 00:55:18;;;;;;;6.38;4.28;;;;;;;14.91;65.82;101946.50;6249609;22;20079;-80
2023/05/21 00:57:45;;;;;;;6.00;3.97;;;;;;;14.90;65.88;101945.00;6248176;22;20083;-80
2023/05/21 01:00:13;;;;;;;6.70;4.10;;;;;;;14.86;66.35;101949.75;6247375;22;20514;-80
2023/05/21 01:02:40;;;;;;;4.30;3.97;;;;;;;14.88;66.08;101946.63;6249909;22;20024;-81
2023/05/21 01:05:08;;;;;;;4.72;4.32;;;;;;;14.89;66.43;101951.56;6247798;22;20071;-80
2023/05/21 01:07:37;;;;;;;4.53;4.13;;;;;;;14.88;66.11;101941.28;6249803;22;20454;-81
2023/05/21 01:10:07;;;;;;;4.30;3.90;;;;;;;14.85;66.74;101942.91;6247917;22;20020;-81
2023/05/21 01:12:35;;;;;;;4.18;3.88;;;;;;;14.85;66.73;101934.84;6249109;22;20092;-80
2023/05/21 01:15:02;;;;;;;10.93;3.78;;;;;;;14.85;66.80;101942.91;6250343;22;20189;-80
2023/05/21 01:17:30;;;;;;;4.25;3.95;;;;;;;14.83;67.05;101942.59;6249736;22;20021;-80
2023/05/21 01:19:57;;;;;;;4.35;3.95;;;;;;;14.81;67.26;101944.94;6250193;22;20016;-81
2023/05/21 01:22:27;;;;;;;4.88;4.47;;;;;;;14.80;67.39;101932.00;6247547;22;20461;-80
2023/05/21 01:24:54;;;;;;;5.10;3.85;;;;;;;14.76;67.68;101931.41;6248198;22;20108;-80
2023/05/21 01:27:21;;;;;;;7.18;3.75;;;;;;;14.72;67.61;101938.81;6247013;22;20017;-81
2023/05/21 01:29:48;;;;;;;4.75;3.92;;;;;;;14.74;67.83;101931.09;6223305;22;20025;-80
2023/05/21 01:32:50;;;;;;;4.85;4.38;;;;;;;14.72;67.29;101922.75;6222148;22;20025;-80
2023/05/21 01:35:32;;;;;;;4.32;4.03;;;;;;;14.71;67.51;101929.28;6228897;22;20074;-80
2023/05/21 01:38:23;;;;;;;4.85;4.32;;;;;;;14.67;68.09;101932.09;6248526;22;20418;-80
2023/05/21 01:41:02;;;;;;;4.43;4.03;;;;;;;14.65;67.57;101935.22;6248545;22;20020;-79
2023/05/21 01:43:35;;;;;;;4.60;4.20;;;;;;;14.64;68.12;101927.59;6247221;22;20398;-80
2023/05/21 01:46:04;;;;;;;5.78;4.20;;;;;;;14.59;68.07;101923.56;6250251;22;20023;-79
2023/05/21 01:48:33;;;;;;;5.10;4.57;;;;;;;14.60;68.26;101927.00;6249093;22;20013;-80
2023/05/21 01:51:02;;;;;;;8.48;4.68;;;;;;;14.58;68.34;101927.44;6248170;22;20435;-80
2023/05/21 01:53:29;;;;;;;5.03;4.32;;;;;;;14.59;68.25;101928.91;6249115;22;20017;-80
2023/05/21 01:55:55;;;;;;;4.38;3.97;;;;;;;14.60;68.64;101929.66;6247396;22;20025;-80
2023/05/21 01:58:23;;;;;;;4.70;4.38;;;;;;;14.56;68.46;101924.44;6249176;22;20051;-80
2023/05/21 02:00:50;;;;;;;7.07;4.28;;;;;;;14.55;68.64;101928.31;6249974;22;20443;-80
2023/05/21 02:03:19;;;;;;;6.53;4.70;;;;;;;14.53;69.05;101927.25;6249364;22;20370;-80
2023/05/21 02:05:46;;;;;;;6.07;4.70;;;;;;;14.51;69.08;101927.69;6247861;22;20071;-80
2023/05/21 02:08:14;;;;;;;6.13;5.05;;;;;;;14.50;69.12;101920.06;6249648;22;20080;-80
2023/05/21 02:10:41;;;;;;;5.13;4.82;;;;;;;14.47;69.48;101919.00;6247856;22;20028;-80
2023/05/21 02:13:07;;;;;;;7.00;4.70;;;;;;;14.44;69.98;101921.81;6247450;22;20048;-81
2023/05/21 02:15:34;;;;;;;5.18;4.78;;;;;;;14.42;70.01;101922.25;6247856;22;20104;-81
2023/05/21 02:18:02;;;;;;;7.20;4.45;;;;;;;14.41;69.99;101922.66;6248181;22;20020;-83
2023/05/21 02:20:29;;;;;;;6.85;4.55;;;;;;;14.40;70.31;101921.16;6247200;22;20025;-81
2023/05/21 02:22:56;;;;;;;7.57;5.13;;;;;;;14.38;70.46;101916.28;6248133;22;20017;-82
2023/05/21 02:25:22;;;;;;;8.23;5.20;;;;;;;14.38;70.90;101920.88;6246944;22;20084;-81
2023/05/21 02:27:52;;;;;;;5.07;4.60;;;;;;;14.34;70.37;101921.75;6249853;22;20127;-81
2023/05/21 02:30:19;;;;;;;5.10;4.70;;;;;;;14.33;70.55;101914.16;6249106;22;20025;-82
2023/05/21 02:32:47;;;;;;;5.35;4.85;;;;;;;14.32;71.10;101918.75;6247902;22;20399;-81
2023/05/21 02:35:15;;;;;;;6.47;4.82;;;;;;;14.31;71.25;101919.94;6247271;22;20017;-82
2023/05/21 02:37:42;;;;;;;5.03;4.60;;;;;;;14.29;71.32;101922.31;6249742;22;20017;-81
2023/05/21 02:40:10;;;;;;;6.18;5.35;;;;;;;14.29;71.52;101921.56;6249020;22;20017;-81
2023/05/21 02:42:40;;;;;;;5.40;5.00;;;;;;;14.29;71.59;101930.34;6247432;22;20067;-81
2023/05/21 02:45:10;;;;;;;8.35;5.35;;;;;;;14.28;71.78;101920.06;6247696;22;20012;-80
2023/05/21 02:47:40;;;;;;;9.93;4.87;;;;;;;14.25;71.66;101918.25;6248091;22;20526;-79
2023/05/21 02:50:08;;;;;;;5.43;4.88;;;;;;;14.24;71.89;101920.19;6247393;22;20637;-79
2023/05/21 02:52:41;;;;;;;5.50;5.00;;;;;;;14.20;72.28;101911.53;6248300;22;20265;-79
2023/05/21 02:55:08;;;;;;;5.10;4.60;;;;;;;14.21;72.09;101920.31;6246777;22;20020;-79
2023/05/21 02:57:35;;;;;;;5.25;4.75;;;;;;;14.18;72.83;101918.50;6247296;22;20023;-79
2023/05/21 03:00:04;;;;;;;5.72;4.78;;;;;;;14.17;72.70;101923.13;6247541;22;20052;-79
2023/05/21 03:02:32;;;;;;;4.97;4.57;;;;;;;14.16;72.62;101915.50;6247066;22;20025;-80
2023/05/21 03:04:59;;;;;;;5.35;4.85;;;;;;;14.13;73.24;101914.44;6249667;22;20087;-79
2023/05/21 03:07:26;;;;;;;5.28;4.82;;;;;;;14.12;73.19;101910.28;6249037;22;20474;-80
2023/05/21 03:09:52;;;;;;;5.63;5.13;;;;;;;14.10;73.02;101919.94;6247139;22;20103;-78
2023/05/21 03:12:19;;;;;;;6.00;4.93;;;;;;;14.09;73.42;101908.47;6246727;22;20398;-79
2023/05/21 03:14:48;;;;;;;5.38;4.85;;;;;;;14.08;73.77;101908.91;6249511;22;20013;-79
2023/05/21 03:17:15;;;;;;;5.78;5.18;;;;;;;14.08;73.84;101909.66;6248841;22;20009;-79
2023/05/21 03:19:43;;;;;;;5.93;5.30;;;;;;;14.07;74.07;101908.16;6249425;22;20024;-79
2023/05/21 03:22:12;;;;;;;6.30;5.07;;;;;;;14.07;74.17;101905.47;6247742;22;20088;-79
2023/05/21 03:24:40;;;;;;;5.30;4.80;;;;;;;14.07;74.53;101905.47;6249258;22;20013;-79
2023/05/21 03:27:07;;;;;;;5.38;4.82;;;;;;;14.05;74.61;101899.81;6247371;22;20020;-79
2023/05/21 03:29:35;;;;;;;7.68;4.93;;;;;;;14.05;74.81;101899.06;6247261;22;20045;-80
2023/05/21 03:32:02;;;;;;;5.68;5.03;;;;;;;14.03;74.51;101896.81;6247572;22;20024;-79
2023/05/21 03:34:33;;;;;;;6.65;5.05;;;;;;;14.02;75.10;101900.69;6246850;22;20020;-80
2023/05/21 03:37:00;;;;;;;5.10;4.63;;;;;;;14.02;75.14;101895.31;6221902;22;20532;-80
2023/05/21 03:39:27;;;;;;;5.88;4.63;;;;;;;14.04;75.30;101895.63;6245997;22;20031;-80
2023/05/21 03:41:55;;;;;;;5.53;5.00;;;;;;;14.02;75.77;101887.28;6247270;22;20016;-80
2023/05/21 03:44:31;;;;;;;6.30;5.20;;;;;;;14.03;75.85;101899.50;6246789;22;20016;-81
2023/05/21 03:47:16;;;;;;;5.90;4.85;;;;;;;14.03;75.64;101888.78;6246634;22;20518;-80
2023/05/21 03:49:42;;;;;;;6.07;5.15;;;;;;;14.03;75.75;101888.78;6222163;22;20107;-80
2023/05/21 03:52:09;;;;;;;6.65;5.15;;;;;;;14.03;76.12;101889.53;6245910;22;20048;-80
2023/05/21 03:54:36;;;;;;;5.32;4.88;;;;;;;14.05;76.47;101889.09;6221527;22;20031;-80
2023/05/21 03:57:06;;;;;;;5.10;4.70;;;;;;;14.03;77.02;101886.84;6246269;22;20024;-80
2023/05/21 03:59:33;;;;;;;5.13;4.72;;;;;;;14.04;76.74;101884.94;6246913;22;20025;-81
2023/05/21 04:02:00;;;;;;;5.53;5.03;;;;;;;14.05;76.73;101883.00;6247180;22;20020;-81
2023/05/21 04:04:28;;;;;;;5.20;4.70;;;;;;;14.06;77.07;101887.91;6246177;22;20024;-81
2023/05/21 04:06:55;;;;;;;5.82;5.25;;;;;;;14.07;77.08;101889.41;6248528;22;20147;-79
2023/05/21 04:09:22;;;;;;;5.30;4.90;;;;;;;14.07;77.46;101892.09;6246727;22;20099;-79
2023/05/21 04:11:50;;;;;;;7.78;4.88;;;;;;;14.06;77.21;101887.91;6249928;22;20012;-79
2023/05/21 04:14:17;;;;;;;7.38;5.00;;;;;;;14.05;77.51;101886.41;6249574;22;20512;-80
2023/05/21 04:16:43;;;;;;;8.23;5.40;;;;;;;14.05;78.06;101891.03;6248335;22;20021;-81
2023/05/21 04:19:10;;;;;;;6.32;4.75;;;;;;;14.03;77.82;101886.09;6250317;22;20176;-81
2023/05/21 04:21:37;;;;;;;6.43;4.57;;;;;;;14.02;77.74;101892.66;6249545;22;20012;-80
2023/05/21 04:24:04;;;;;;;5.03;4.53;;;;;;;14.00;78.41;101898.44;6248218;22;20023;-80
2023/05/21 04:26:47;;;;;;;7.40;5.00;;;;;;;14.02;78.36;101887.28;6248416;22;20112;-80
2023/05/21 04:29:20;;;;;;;7.05;5.00;;;;;;;14.04;78.47;101887.59;6248152;22;20067;-80
2023/05/21 04:31:48;;;;;;;5.10;4.70;;;;;;;14.05;78.52;101891.78;6248671;22;20023;-80
2023/05/21 04:34:18;;;;;;;5.32;4.85;;;;;;;14.05;78.18;101897.13;6247803;22;20020;-79
2023/05/21 04:36:45;;;;;;;5.00;4.60;;;;;;;14.06;78.40;101893.28;6247922;22;20517;-79
2023/05/21 04:39:13;;;;;;;4.97;4.55;;;;;;;14.06;78.37;101895.94;6248049;22;20029;-79
2023/05/21 04:41:40;;;;;;;7.03;4.78;;;;;;;14.04;78.51;101895.63;6250225;22;20060;-80
2023/05/21 04:44:07;;;;;;;5.35;4.85;;;;;;;14.06;78.58;101898.63;6248021;22;20075;-79
2023/05/21 04:46:34;;;;;;;6.30;5.32;;;;;;;14.06;78.60;101898.63;6250046;22;20304;-80
2023/05/21 04:49:04;;;;;;;13.43;6.72;;;;;;;14.07;78.81;101892.09;6248559;22;20462;-80
2023/05/21 04:51:31;;;;;;;5.03;4.63;;;;;;;14.07;78.73;101896.69;6249635;22;20017;-80
2023/05/21 04:53:58;;;;;;;5.00;4.60;;;;;;;14.07;78.72;101894.78;6250300;22;20104;-80
2023/05/21 04:56:28;;;;;;;5.30;4.80;;;;;;;14.09;78.64;101897.75;6249359;22;20040;-80
2023/05/21 04:58:57;;;;;;;5.47;4.90;;;;;;;14.10;78.84;101895.84;6248624;22;20063;-80
2023/05/21 05:01:25;;;;;;;5.60;4.78;;;;;;;14.14;78.71;101893.78;6247767;22;20458;-80
2023/05/21 05:03:52;;;;;;;5.00;4.68;;;;;;;14.18;78.90;101905.13;6250127;22;20023;-80
2023/05/21 05:06:20;;;;;;;6.07;5.10;;;;;;;14.20;78.67;101902.75;6247027;22;20097;-80
2023/05/21 05:08:47;;;;;;;5.20;4.80;;;;;;;14.22;78.96;101906.50;6248359;22;20390;-80
2023/05/21 05:11:14;;;;;;;5.25;4.53;;;;;;;14.23;78.43;101909.91;6247580;22;20021;-80
2023/05/21 05:13:41;;;;;;;5.22;4.72;;;;;;;14.22;78.62;101911.84;6250292;22;20020;-80
2023/05/21 05:16:08;;;;;;;5.00;4.60;;;;;;;14.25;79.14;101910.22;6249961;22;20016;-80
2023/05/21 05:18:35;;;;;;;5.45;4.95;;;;;;;14.22;79.05;101905.75;6247901;22;20437;-80
2023/05/21 05:21:02;;;;;;;10.38;5.05;;;;;;;14.25;78.89;101910.22;6248055;22;20047;-80
2023/05/21 05:23:29;;;;;;;4.85;4.55;;;;;;;14.28;78.62;101910.09;6247345;22;20027;-81
2023/05/21 05:25:56;;;;;;;6.93;4.88;;;;;;;14.32;78.74;101900.00;6248007;22;20015;-80
2023/05/21 05:28:22;;;;;;;5.95;5.15;;;;;;;14.35;78.96;101895.72;6247434;22;20082;-80
2023/05/21 05:30:49;;;;;;;5.60;5.18;;;;;;;14.37;78.79;101901.38;6249887;22;20340;-79
2023/05/21 05:33:21;;;;;;;9.02;4.78;;;;;;;14.37;78.82;101901.38;6246993;22;20021;-79
2023/05/21 05:35:48;;;;;;;6.43;5.35;;;;;;;14.40;78.89;101895.13;6248326;22;20439;-81
2023/05/21 05:38:15;;;;;;;6.28;5.13;;;;;;;14.43;78.93;101899.63;6247639;22;20048;-80
2023/05/21 05:40:42;;;;;;;5.90;5.28;;;;;;;14.43;79.07;101905.00;6249846;22;20047;-81
2023/05/21 05:43:09;;;;;;;5.55;5.05;;;;;;;14.47;79.20;101896.84;6247921;22;20446;-81
2023/05/21 05:45:35;;;;;;;8.02;5.40;;;;;;;14.54;78.94;101899.25;6247665;22;20016;-81
2023/05/21 05:48:08;;;;;;;5.50;5.00;;;;;;;14.58;78.85;101902.56;6246754;22;20426;-81
2023/05/21 05:50:35;;;;;;;5.90;5.32;;;;;;;14.59;78.21;101901.38;6248061;22;20079;-80
2023/05/21 05:53:02;;;;;;;5.50;5.00;;;;;;;14.63;78.33;101896.63;6250431;22;20324;-80
2023/05/21 05:55:28;;;;;;;5.97;5.35;;;;;;;14.67;78.17;101902.63;6248908;22;20012;-81
2023/05/21 05:57:55;;;;;;;5.53;5.00;;;;;;;14.68;77.86;101904.84;6249856;22;20020;-79
2023/05/21 06:00:21;;;;;;;6.15;5.53;;;;;;;14.65;77.75;101902.31;6247198;22;20164;-79
2023/05/21 06:02:49;;;;;;;12.05;5.65;;;;;;;14.62;77.73;101897.81;6247268;22;20017;-80
2023/05/21 06:05:16;;;;;;;6.82;5.43;;;;;;;14.67;77.54;101900.69;6222063;22;20016;-80
2023/05/21 06:07:43;;;;;;;6.53;5.03;;;;;;;14.76;77.56;101896.56;6248101;22;20395;-80
2023/05/21 06:10:09;;;;;;;7.38;5.50;;;;;;;14.84;77.21;101890.47;6249667;22;20020;-80
2023/05/21 06:12:36;;;;;;;6.43;5.88;;;;;;;15.01;77.09;101891.72;6247672;22;20028;-80
2023/05/21 06:15:04;;;;;;;8.13;6.00;;;;;;;15.20;76.97;101889.84;6247618;22;20020;-80
2023/05/21 06:17:32;;;;;;;6.35;5.65;;;;;;;15.38;75.95;101885.72;6246844;22;20021;-81
2023/05/21 06:19:59;;;;;;;6.07;5.50;;;;;;;15.49;75.63;101889.47;6247981;22;20481;-80
2023/05/21 06:22:26;;;;;;;6.30;5.30;;;;;;;15.69;74.63;101886.34;6223027;22;20100;-78
2023/05/21 06:24:53;;;;;;;5.57;5.13;;;;;;;15.92;73.83;101887.72;6248621;22;20048;-79
2023/05/21 06:27:20;;;;;;;8.98;5.60;;;;;;;16.14;72.50;101876.78;6249456;22;20099;-81
2023/05/21 06:29:48;;;;;;;6.20;5.55;;;;;;;16.27;72.05;101880.81;6246631;22;20083;-80
2023/05/21 06:32:14;;;;;;;6.15;5.55;;;;;;;16.48;70.93;101883.72;6245313;22;20023;-80
2023/05/21 06:34:41;;;;;;;5.63;5.20;;;;;;;16.62;70.11;101886.53;6220792;22;20095;-79
2023/05/21 06:37:07;;;;;;;13.27;5.95;;;;;;;16.60;70.47;101882.78;6245571;22;20455;-80
2023/05/21 06:39:34;;;;;;;5.63;5.13;;;;;;;16.72;69.92;101886.53;6246990;22;20481;-80
2023/05/21 06:42:01;;;;;;;6.57;5.95;;;;;;;16.72;69.92;101886.53;6248572;22;20140;-80
2023/05/21 06:44:43;;;;;;;6.13;5.50;;;;;;;16.81;70.12;101883.78;6248506;22;20075;-83
2023/05/21 06:47:16;;;;;;;8.02;5.88;;;;;;;16.93;69.76;101880.88;6247714;22;20029;-82
2023/05/21 06:49:42;;;;;;;8.75;5.72;;;;;;;17.05;68.79;101879.19;6248862;22;20020;-79
2023/05/21 06:52:10;;;;;;;8.05;5.97;;;;;;;17.04;68.42;101885.03;6248416;22;20021;-76
2023/05/21 06:54:37;;;;;;;7.45;5.80;;;;;;;17.01;68.20;101884.00;6248498;22;20041;-77
2023/05/21 06:57:04;;;;;;;6.80;6.10;;;;;;;17.03;69.09;101886.97;6248043;22;20021;-78
2023/05/21 06:59:31;;;;;;;7.32;5.57;;;;;;;17.09;68.41;101882.47;6248739;22;20023;-76
2023/05/21 07:01:58;;;;;;;7.68;5.75;;;;;;;17.06;68.45;101880.69;6248006;22;20163;-79
2023/05/21 07:04:27;;;;;;;6.70;6.18;;;;;;;17.05;68.80;101876.50;6248001;22;20077;-78
2023/05/21 07:06:54;;;;;;;7.03;5.72;;;;;;;17.09;68.52;101874.38;6248392;22;20043;-76
2023/05/21 07:09:22;;;;;;;6.13;5.63;;;;;;;17.10;68.08;101878.56;6247814;22;20017;-77
2023/05/21 07:11:48;;;;;;;6.78;6.18;;;;;;;17.11;68.21;101882.00;6248162;22;20407;-78
2023/05/21 07:14:15;;;;;;;6.90;6.25;;;;;;;17.17;68.13;101872.84;6247921;22;20031;-76
2023/05/21 07:16:42;;;;;;;8.55;5.53;;;;;;;17.21;67.71;101870.72;6249558;22;20025;-76
2023/05/21 07:19:09;;;;;;;11.27;6.38;;;;;;;17.35;67.66;101869.28;6248007;22;20027;-75
2023/05/21 07:21:36;;;;;;;6.00;5.50;;;;;;;17.47;67.39;101879.06;6248317;22;20017;-76
2023/05/21 07:24:05;;;;;;;6.47;5.88;;;;;;;17.61;66.63;101883.00;6247379;22;20027;-75
2023/05/21 07:26:31;;;;;;;6.78;6.20;;;;;;;17.72;65.84;101882.50;6248233;22;20028;-76
2023/05/21 07:28:58;;;;;;;6.70;6.07;;;;;;;17.66;66.15;101877.75;6248130;22;20016;-76
2023/05/21 07:31:25;;;;;;;6.28;5.70;;;;;;;17.79;65.56;101884.84;6247523;22;20099;-76
2023/05/21 07:33:52;;;;;;;6.95;5.70;;;;;;;17.98;65.77;101886.19;6248018;22;20464;-75
2023/05/21 07:36:23;;;;;;;9.07;5.95;;;;;;;18.14;65.60;101887.66;6247561;22;20458;-76
2023/05/21 07:38:49;;;;;;;11.18;6.47;;;;;;;18.23;65.12;101882.94;6248103;22;20473;-77
2023/05/21 07:41:16;;;;;;;8.43;6.20;;;;;;;18.32;63.89;101884.78;6249668;22;20013;-75
2023/05/21 07:43:45;;;;;;;10.13;5.78;;;;;;;18.29;63.83;101886.47;6247804;22;20067;-77
2023/05/21 07:46:12;;;;;;;6.72;5.85;;;;;;;18.39;63.47;101889.06;6247459;22;20029;-77
2023/05/21 07:48:40;;;;;;;7.43;6.43;;;;;;;18.47;63.33;101882.06;6249643;22;20016;-77
2023/05/21 07:51:08;;;;;;;6.28;5.65;;;;;;;18.53;62.99;101883.63;6249296;22;20477;-76
2023/05/21 07:53:35;;;;;;;6.95;6.07;;;;;;;18.67;62.51;101887.56;6249331;22;20020;-76
2023/05/21 07:56:05;;;;;;;6.88;6.20;;;;;;;18.83;61.81;101878.22;6248692;22;20024;-77
2023/05/21 07:58:33;;;;;;;7.05;5.55;;;;;;;18.99;62.03;101875.75;6249120;22;20016;-77
2023/05/21 08:01:01;;;;;;;9.02;5.75;;;;;;;19.10;60.88;101869.75;6224488;22;20091;-76
2023/05/21 08:03:29;;;;;;;10.07;5.72;;;;;;;19.04;60.75;101868.94;6249069;22;20180;-76
2023/05/21 08:05:56;;;;;;;7.07;5.90;;;;;;;19.24;61.54;101865.50;6249516;22;20021;-76
2023/05/21 08:08:23;;;;;;;9.65;5.47;;;;;;;19.31;60.89;101857.75;6249338;22;20442;-78
2023/05/21 08:10:52;;;;;;;6.38;5.82;;;;;;;19.59;60.72;101863.47;6249483;22;20139;-78
2023/05/21 08:13:20;;;;;;;7.82;5.63;;;;;;;19.73;60.11;101861.91;6248372;22;20016;-78
2023/05/21 08:15:48;;;;;;;5.95;5.47;;;;;;;19.77;60.27;101856.28;6249491;22;20024;-78
2023/05/21 08:18:19;;;;;;;5.72;5.32;;;;;;;19.72;60.81;101856.97;6249138;22;20041;-77
2023/05/21 08:20:47;;;;;;;10.65;5.85;;;;;;;19.74;60.18;101857.97;6249346;22;20017;-77
2023/05/21 08:23:15;;;;;;;6.45;5.85;;;;;;;19.87;60.29;101846.81;6248538;22;20412;-78
2023/05/21 08:25:47;;;;;;;6.50;5.82;;;;;;;20.08;59.28;101852.88;6249176;22;20027;-78
2023/05/21 08:28:14;;;;;;;6.10;5.70;;;;;;;20.14;58.94;101853.66;6248441;22;20320;-78
2023/05/21 08:30:41;;;;;;;7.18;5.90;;;;;;;20.19;58.86;101850.28;6249417;22;20514;-84
2023/05/21 08:33:07;;;;;;;12.73;5.75;;;;;;;20.14;58.50;101856.38;6249127;22;20016;-81
2023/05/21 08:35:34;;;;;;;6.07;5.68;;;;;;;19.97;59.12;101864.34;6249497;22;20035;-81
2023/05/21 08:38:17;;;;;;;8.10;6.20;;;;;;;19.89;59.48;101858.63;6249401;22;20040;-81
2023/05/21 08:40:55;;;;;;;6.43;5.80;;;;;;;20.00;59.87;101855.25;6249887;22;20012;-83
2023/05/21 08:43:26;;;;;;;6.53;5.65;;;;;;;20.17;59.37;101853.47;6248138;22;20019;-81
2023/05/21 08:45:54;;;;;;;6.10;5.60;;;;;;;20.27;59.00;101854.03;6249902;22;20450;-82
2023/05/21 08:48:24;;;;;;;7.53;6.15;;;;;;;20.37;58.22;101852.63;6224294;22;20212;-82
2023/05/21 08:50:52;;;;;;;6.47;5.88;;;;;;;20.60;57.72;101861.66;6251620;22;20619;-80
2023/05/21 08:53:26;;;;;;;6.93;5.88;;;;;;;20.73;57.02;101858.53;6249222;22;20049;-82
2023/05/21 08:55:56;;;;;;;8.27;6.25;;;;;;;20.89;56.78;101858.63;6250551;22;20079;-79
2023/05/21 08:58:32;;;;;;;6.88;5.78;;;;;;;21.11;56.43;101859.97;6248178;22;20485;-84
2023/05/21 09:00:59;;;;;;;6.53;6.03;;;;;;;21.32;55.90;101872.13;6249088;22;20463;-82
2023/05/21 09:03:28;;;;;;;6.15;5.68;;;;;;;21.45;55.47;101868.97;6248434;22;20023;-78
2023/05/21 09:05:56;;;;;;;8.95;5.32;;;;;;;21.54;55.34;101864.06;6249008;22;20020;-77
2023/05/21 09:08:33;;;;;;;10.07;6.10;;;;;;;21.68;55.34;101873.19;6248874;22;20023;-78
2023/05/21 09:11:04;;;;;;;7.43;6.47;;;;;;;21.78;53.96;101871.75;6248570;22;20417;-78
2023/05/21 09:13:39;;;;;;;6.40;5.90;;;;;;;22.00;53.80;101862.16;6249188;22;20017;-78
2023/05/21 09:16:11;;;;;;;7.10;6.20;;;;;;;22.12;53.13;101867.13;6248959;22;20025;-78
2023/05/21 09:18:38;;;;;;;7.72;5.47;;;;;;;22.06;52.86;101860.94;6248992;22;20020;-78
2023/05/21 09:21:30;;;;;;;7.93;5.55;;;;;;;22.00;53.24;101873.72;6249776;22;20016;-78
2023/05/21 09:24:02;;;;;;;6.68;5.65;;;;;;;22.03;52.91;101858.47;6248915;22;20046;-77
2023/05/21 09:26:29;;;;;;;6.05;5.50;;;;;;;22.23;52.77;101847.41;6247949;22;20031;-79
2023/05/21 09:29:00;;;;;;;6.28;5.80;;;;;;;22.48;51.93;101851.06;6249116;22;20016;-78
2023/05/21 09:31:28;;;;;;;6.18;5.43;;;;;;;22.67;52.09;101857.44;6248673;22;20095;-78
2023/05/21 09:33:55;;;;;;;7.72;5.65;;;;;;;22.88;51.39;101850.50;6248922;22;20096;-78
2023/05/21 09:36:23;;;;;;;6.10;5.50;;;;;;;22.90;51.18;101841.84;6248530;22;20485;-78
2023/05/21 09:38:53;;;;;;;6.32;5.57;;;;;;;23.11;50.29;101844.97;6249204;22;20023;-78
2023/05/21 09:41:29;;;;;;;7.07;5.90;;;;;;;22.99;50.17;101849.72;6248299;22;20012;-78
2023/05/21 09:44:01;;;;;;;6.93;6.30;;;;;;;22.93;50.53;101838.13;6249172;22;20087;-78
2023/05/21 09:46:37;;;;;;;6.30;5.70;;;;;;;23.04;51.26;101842.78;6223373;22;20025;-77
2023/05/21 09:49:05;;;;;;;6.82;5.57;;;;;;;23.13;49.81;101842.50;6248641;22;20071;-79
2023/05/21 09:51:31;;;;;;;16.83;15.07;;;;;;;23.11;50.37;101834.84;6250400;22;20067;-79
2023/05/21 09:53:58;;;;;;;8.75;5.90;;;;;;;23.27;50.58;101836.00;6250583;22;20012;-79
2023/05/21 09:56:30;;;;;;;7.18;5.57;;;;;;;23.38;49.71;101835.94;6249080;22;20028;-78
2023/05/21 09:59:05;;;;;;;6.03;5.40;;;;;;;23.54;50.05;101828.97;6250878;22;20020;-79
2023/05/21 10:01:33;;;;;;;6.80;5.85;;;;;;;23.73;48.82;101829.06;6251035;22;20017;-79
2023/05/21 10:04:05;;;;;;;6.35;5.80;;;;;;;23.68;49.60;101816.25;6250811;22;20024;-79
2023/05/21 10:06:36;;;;;;;7.25;5.63;;;;;;;23.57;49.38;101817.84;6250788;22;20024;-78
2023/05/21 10:09:08;;;;;;;8.27;5.82;;;;;;;23.52;49.06;101815.84;6248098;22;20565;-78
2023/05/21 10:11:36;;;;;;;6.32;5.80;;;;;;;23.61;49.43;101807.41;6249234;22;20501;-79
2023/05/21 10:14:07;;;;;;;13.80;6.05;;;;;;;23.65;49.40;101817.25;6248769;22;20017;-79
2023/05/21 10:16:36;;;;;;;6.15;5.68;;;;;;;23.60;49.46;101808.66;6250855;22;20244;-81
2023/05/21 10:19:04;;;;;;;6.63;5.97;;;;;;;23.56;48.77;101810.19;6250862;22;20013;-81
2023/05/21 10:21:32;;;;;;;6.72;5.65;;;;;;;23.50;49.30;101812.91;6250762;22;20071;-79
2023/05/21 10:24:01;;;;;;;6.47;5.88;;;;;;;23.34;49.38;101802.13;6248653;22;20410;-78
2023/05/21 10:26:29;;;;;;;6.75;5.93;;;;;;;23.27;49.78;101800.69;6250518;22;20020;-78
2023/05/21 10:28:58;;;;;;;6.68;5.97;;;;;;;23.59;50.22;101799.00;6250798;22;20017;-81
2023/05/21 10:31:26;;;;;;;5.95;5.53;;;;;;;23.85;48.63;101800.56;6248228;22;20104;-77
2023/05/21 10:33:54;;;;;;;6.00;5.50;;;;;;;23.91;47.83;101802.00;6250494;22;20553;-78
2023/05/21 10:36:22;;;;;;;6.10;5.50;;;;;;;24.07;48.11;101794.19;6250109;22;20727;-82
2023/05/21 10:38:49;;;;;;;14.85;6.63;;;;;;;24.13;47.74;101789.44;6250225;22;20015;-78
2023/05/21 10:41:18;;;;;;;8.20;5.43;;;;;;;24.00;48.47;101786.56;6248274;22;20357;-78
2023/05/21 10:44:05;;;;;;;6.57;5.97;;;;;;;23.77;47.99;101788.75;6250562;22;20013;-79
2023/05/21 10:46:52;;;;;;;6.60;5.20;;;;;;;23.44;48.83;101787.00;6250702;22;20016;-78
2023/05/21 10:49:32;;;;;;;9.98;6.18;;;;;;;23.32;49.02;101780.16;6250481;22;20031;-79
2023/05/21 10:52:38;;;;;;;5.97;5.43;;;;;;;23.22;49.92;101793.31;6250606;22;20017;-79
2023/05/21 10:55:23;;;;;;;7.55;6.75;;;;;;;23.09;50.04;101788.47;6126775;23;20457;-78
2023/05/21 10:57:55;;;;;;;9.45;6.45;;;;;;;23.23;49.89;101784.66;6126385;23;20030;-79
2023/05/21 11:00:25;;;;;;;8.35;6.55;;;;;;;23.13;49.26;101793.63;6126929;23;20018;-78
2023/05/21 11:02:52;;;;;;;6.40;5.80;;;;;;;22.98;50.48;101788.50;6102971;23;20022;-79
2023/05/21 11:05:41;;;;;;;9.10;6.18;;;;;;;23.43;49.66;101786.28;6126836;23;20540;-78
2023/05/21 11:08:24;;;;;;;6.55;5.70;;;;;;;23.53;49.56;101778.59;6126070;23;20106;-78
2023/05/21 11:10:56;;;;;;;6.63;5.60;;;;;;;23.50;49.18;101788.44;6127262;23;20106;-79
2023/05/21 11:13:30;;;;;;;9.02;6.43;;;;;;;23.27;49.57;101787.09;6126900;23;20018;-79
2023/05/21 11:15:56;;;;;;;7.65;6.95;;;;;;;23.07;49.77;101782.06;6127192;23;20188;-78
2023/05/21 11:18:43;;;;;;;10.45;6.45;;;;;;;22.98;51.00;101787.75;6126332;23;20854;-78
2023/05/21 11:21:12;;;;;;;9.75;6.80;;;;;;;23.05;50.71;101777.13;6126903;23;20022;-79
2023/05/21 11:24:00;;;;;;;7.40;6.70;;;;;;;23.42;50.11;101781.34;6127712;23;20093;-78
2023/05/21 11:26:28;;;;;;;7.30;6.68;;;;;;;23.71;49.24;101775.22;6128165;23;20221;-78
2023/05/21 11:29:04;;;;;;;7.13;6.53;;;;;;;24.12;48.62;101753.34;6128688;23;20026;-79
2023/05/21 11:31:36;;;;;;;8.18;7.28;;;;;;;24.22;47.90;101765.34;6228274;22;20377;-79
2023/05/21 11:34:09;;;;;;;7.70;6.95;;;;;;;24.32;48.17;101754.91;6251511;22;20088;-78